MMUN/CUN METAR and TAF weather

Enter ICAO airport designator
Station Type Date Time Source
MMUN METAR 2019/04/25 17:47 UTC NOAA

MMUN 251747Z 14016KT 7SM BKN020TCU 29/22 A2991 RMK SLP130 57006 974 8/200 MDT CU


Station Type Date Time Source
MMUN Decoded METAR 2019/04/25 17:47 UTC NOAA

Cancun International Airport, Mexico (MMUN) 21-02N 086-52W
Apr 25, 2019 - 01:47 PM EDT / 2019.04.25 1747 UTC
Wind: from the SE (140 degrees) at 18 MPH (16 KT):0
Visibility: 7 mile(s):0
Sky conditions: mostly cloudy
Weather: Towering cumulus clouds observed
Temperature: 84 F (29 C)
Dew Point: 71 F (22 C)
Relative Humidity: 65%
Pressure (altimeter): 29.91 in. Hg (1012 hPa)
Pressure tendency: 0.02 inches (0.6 hPa) lower than three hours ago
ob: MMUN 251747Z 14016KT 7SM BKN020TCU 29/22 A2991 RMK SLP130 57006 974 8/200 MDT CU
cycle: 18

Station Type Date Time Source
MMUN TAF 2019/04/25 18:27 UTC NOAA

TAF MMUN 251724Z 2518/2624 12020KT P6SM SCT020 TX30/2521Z TN26/2612Z
FM260100 12012KT P6SM SCT020
BECMG 2605/2606 12010KT
FM261000 12010KT 6SM HZ BKN015
FM262000 15015KT P6SM BKN020CB BKN080 PROB40 2621/2624 5SM TSRA

Example: see airport list